sensor_id;sensor_type;location;lat;lon;timestamp;P1;durP1;ratioP1;P2;durP2;ratioP2
71484;SDS011;59300;52.074;4.758;2022-12-18T00:01:17;129.68;;;31.17;;
71484;SDS011;59300;52.074;4.758;2022-12-18T00:04:23;114.10;;;28.98;;
71484;SDS011;59300;52.074;4.758;2022-12-18T00:07:25;125.90;;;30.88;;
71484;SDS011;59300;52.074;4.758;2022-12-18T00:10:27;140.32;;;30.92;;
71484;SDS011;59300;52.074;4.758;2022-12-18T00:13:29;133.65;;;30.00;;
71484;SDS011;59300;52.074;4.758;2022-12-18T00:16:30;147.48;;;30.50;;
71484;SDS011;59300;52.074;4.758;2022-12-18T00:19:32;130.27;;;30.38;;
71484;SDS011;59300;52.074;4.758;2022-12-18T00:22:34;120.97;;;28.33;;
71484;SDS011;59300;52.074;4.758;2022-12-18T00:25:36;122.45;;;29.85;;
71484;SDS011;59300;52.074;4.758;2022-12-18T00:28:38;157.97;;;33.77;;
71484;SDS011;59300;52.074;4.758;2022-12-18T00:31:40;124.50;;;29.13;;
71484;SDS011;59300;52.074;4.758;2022-12-18T00:34:43;122.60;;;27.90;;
71484;SDS011;59300;52.074;4.758;2022-12-18T00:37:44;136.65;;;28.77;;
71484;SDS011;59300;52.074;4.758;2022-12-18T00:41:05;114.15;;;27.70;;
71484;SDS011;59300;52.074;4.758;2022-12-18T00:44:10;103.55;;;27.42;;
71484;SDS011;59300;52.074;4.758;2022-12-18T00:47:13;101.22;;;26.95;;
71484;SDS011;59300;52.074;4.758;2022-12-18T00:50:15;115.28;;;30.48;;
71484;SDS011;59300;52.074;4.758;2022-12-18T00:53:17;117.07;;;27.05;;
71484;SDS011;59300;52.074;4.758;2022-12-18T00:56:19;117.78;;;29.55;;
71484;SDS011;59300;52.074;4.758;2022-12-18T01:02:26;95.78;;;27.55;;
71484;SDS011;59300;52.074;4.758;2022-12-18T01:05:28;129.80;;;29.10;;
71484;SDS011;59300;52.074;4.758;2022-12-18T01:08:29;114.68;;;26.10;;
71484;SDS011;59300;52.074;4.758;2022-12-18T01:11:31;120.75;;;30.17;;
71484;SDS011;59300;52.074;4.758;2022-12-18T01:14:32;115.68;;;28.65;;
71484;SDS011;59300;52.074;4.758;2022-12-18T01:17:34;117.18;;;29.95;;
71484;SDS011;59300;52.074;4.758;2022-12-18T01:20:35;117.93;;;30.40;;
71484;SDS011;59300;52.074;4.758;2022-12-18T01:23:39;117.55;;;31.15;;
71484;SDS011;59300;52.074;4.758;2022-12-18T01:26:45;122.13;;;28.25;;
71484;SDS011;59300;52.074;4.758;2022-12-18T01:29:49;104.63;;;27.67;;
71484;SDS011;59300;52.074;4.758;2022-12-18T01:32:53;108.72;;;28.27;;
71484;SDS011;59300;52.074;4.758;2022-12-18T01:35:54;100.97;;;26.17;;
71484;SDS011;59300;52.074;4.758;2022-12-18T01:38:56;113.10;;;28.67;;
71484;SDS011;59300;52.074;4.758;2022-12-18T01:42:00;122.00;;;31.10;;
71484;SDS011;59300;52.074;4.758;2022-12-18T01:48:17;131.82;;;30.58;;
71484;SDS011;59300;52.074;4.758;2022-12-18T01:51:19;111.68;;;27.75;;
71484;SDS011;59300;52.074;4.758;2022-12-18T01:54:21;82.80;;;25.77;;
71484;SDS011;59300;52.074;4.758;2022-12-18T01:57:23;97.65;;;27.33;;
71484;SDS011;59300;52.074;4.758;2022-12-18T02:00:26;97.32;;;25.20;;
71484;SDS011;59300;52.074;4.758;2022-12-18T02:03:28;81.15;;;24.98;;
71484;SDS011;59300;52.074;4.758;2022-12-18T02:06:33;98.45;;;27.52;;
71484;SDS011;59300;52.074;4.758;2022-12-18T02:09:54;81.95;;;24.83;;
71484;SDS011;59300;52.074;4.758;2022-12-18T02:13:13;96.32;;;24.30;;
71484;SDS011;59300;52.074;4.758;2022-12-18T02:26:28;91.47;;;25.58;;
71484;SDS011;59300;52.074;4.758;2022-12-18T02:29:37;122.50;;;27.83;;
71484;SDS011;59300;52.074;4.758;2022-12-18T02:32:45;82.45;;;25.90;;
71484;SDS011;59300;52.074;4.758;2022-12-18T02:35:50;84.72;;;23.77;;
71484;SDS011;59300;52.074;4.758;2022-12-18T02:38:55;84.22;;;26.73;;
71484;SDS011;59300;52.074;4.758;2022-12-18T02:41:59;89.40;;;25.75;;
71484;SDS011;59300;52.074;4.758;2022-12-18T02:45:02;105.43;;;27.15;;
71484;SDS011;59300;52.074;4.758;2022-12-18T02:48:07;85.43;;;26.73;;
71484;SDS011;59300;52.074;4.758;2022-12-18T02:51:17;68.13;;;22.02;;
71484;SDS011;59300;52.074;4.758;2022-12-18T03:01:13;68.32;;;22.73;;
71484;SDS011;59300;52.074;4.758;2022-12-18T03:04:26;63.92;;;20.42;;
71484;SDS011;59300;52.074;4.758;2022-12-18T03:07:37;68.63;;;20.50;;
71484;SDS011;59300;52.074;4.758;2022-12-18T03:10:53;79.63;;;22.55;;
71484;SDS011;59300;52.074;4.758;2022-12-18T03:14:01;62.08;;;22.92;;
71484;SDS011;59300;52.074;4.758;2022-12-18T03:17:07;85.68;;;23.13;;
71484;SDS011;59300;52.074;4.758;2022-12-18T03:20:17;62.42;;;22.58;;
71484;SDS011;59300;52.074;4.758;2022-12-18T03:23:24;67.40;;;21.38;;
71484;SDS011;59300;52.074;4.758;2022-12-18T03:26:29;71.50;;;24.02;;
71484;SDS011;59300;52.074;4.758;2022-12-18T03:29:45;87.55;;;25.38;;
71484;SDS011;59300;52.074;4.758;2022-12-18T03:33:00;70.72;;;22.63;;
71484;SDS011;59300;52.074;4.758;2022-12-18T03:36:09;60.25;;;22.80;;
71484;SDS011;59300;52.074;4.758;2022-12-18T03:39:12;79.50;;;24.90;;
71484;SDS011;59300;52.074;4.758;2022-12-18T03:42:35;99.47;;;25.73;;
71484;SDS011;59300;52.074;4.758;2022-12-18T03:45:54;78.75;;;25.02;;
71484;SDS011;59300;52.074;4.758;2022-12-18T03:49:15;99.63;;;25.95;;
71484;SDS011;59300;52.074;4.758;2022-12-18T03:52:46;84.13;;;25.60;;
71484;SDS011;59300;52.074;4.758;2022-12-18T03:55:54;95.05;;;27.08;;
71484;SDS011;59300;52.074;4.758;2022-12-18T03:59:00;74.65;;;25.38;;
71484;SDS011;59300;52.074;4.758;2022-12-18T04:02:06;77.80;;;24.38;;
71484;SDS011;59300;52.074;4.758;2022-12-18T04:05:09;91.72;;;27.65;;
71484;SDS011;59300;52.074;4.758;2022-12-18T04:08:15;90.43;;;26.38;;
71484;SDS011;59300;52.074;4.758;2022-12-18T04:11:25;89.43;;;25.48;;
71484;SDS011;59300;52.074;4.758;2022-12-18T04:14:27;83.90;;;25.15;;
71484;SDS011;59300;52.074;4.758;2022-12-18T04:17:30;62.05;;;22.60;;
71484;SDS011;59300;52.074;4.758;2022-12-18T04:20:32;79.13;;;24.75;;
71484;SDS011;59300;52.074;4.758;2022-12-18T04:23:33;72.18;;;25.77;;
71484;SDS011;59300;52.074;4.758;2022-12-18T04:26:36;88.80;;;26.67;;
71484;SDS011;59300;52.074;4.758;2022-12-18T04:29:46;90.32;;;24.10;;
71484;SDS011;59300;52.074;4.758;2022-12-18T04:32:48;99.70;;;27.50;;
71484;SDS011;59300;52.074;4.758;2022-12-18T04:35:53;104.57;;;25.15;;
71484;SDS011;59300;52.074;4.758;2022-12-18T04:38:55;80.57;;;23.95;;
71484;SDS011;59300;52.074;4.758;2022-12-18T04:41:57;92.63;;;26.15;;
71484;SDS011;59300;52.074;4.758;2022-12-18T04:45:02;89.50;;;25.55;;
71484;SDS011;59300;52.074;4.758;2022-12-18T04:48:03;73.38;;;23.75;;
71484;SDS011;59300;52.074;4.758;2022-12-18T04:51:05;88.10;;;23.20;;
71484;SDS011;59300;52.074;4.758;2022-12-18T04:54:07;80.47;;;22.48;;
71484;SDS011;59300;52.074;4.758;2022-12-18T04:57:08;94.00;;;25.30;;
71484;SDS011;59300;52.074;4.758;2022-12-18T05:00:10;104.63;;;25.10;;
71484;SDS011;59300;52.074;4.758;2022-12-18T05:03:31;75.55;;;23.63;;
71484;SDS011;59300;52.074;4.758;2022-12-18T05:06:32;74.28;;;25.10;;
71484;SDS011;59300;52.074;4.758;2022-12-18T05:09:34;70.95;;;23.48;;
71484;SDS011;59300;52.074;4.758;2022-12-18T05:12:35;69.53;;;24.95;;
71484;SDS011;59300;52.074;4.758;2022-12-18T05:15:37;73.80;;;24.17;;
71484;SDS011;59300;52.074;4.758;2022-12-18T05:18:38;82.15;;;23.63;;
71484;SDS011;59300;52.074;4.758;2022-12-18T05:21:40;83.70;;;25.35;;
71484;SDS011;59300;52.074;4.758;2022-12-18T05:24:42;61.08;;;21.75;;
71484;SDS011;59300;52.074;4.758;2022-12-18T05:27:43;69.32;;;21.85;;
71484;SDS011;59300;52.074;4.758;2022-12-18T05:30:49;69.63;;;24.85;;
71484;SDS011;59300;52.074;4.758;2022-12-18T05:33:52;74.85;;;21.55;;
71484;SDS011;59300;52.074;4.758;2022-12-18T05:36:53;61.38;;;22.95;;
71484;SDS011;59300;52.074;4.758;2022-12-18T05:39:55;71.32;;;23.42;;
71484;SDS011;59300;52.074;4.758;2022-12-18T05:42:56;79.05;;;22.95;;
71484;SDS011;59300;52.074;4.758;2022-12-18T05:45:58;72.25;;;22.05;;
71484;SDS011;59300;52.074;4.758;2022-12-18T05:49:04;67.93;;;21.88;;
71484;SDS011;59300;52.074;4.758;2022-12-18T05:52:06;62.95;;;20.75;;
71484;SDS011;59300;52.074;4.758;2022-12-18T05:55:07;64.45;;;21.73;;
71484;SDS011;59300;52.074;4.758;2022-12-18T05:58:10;64.95;;;21.70;;
71484;SDS011;59300;52.074;4.758;2022-12-18T06:01:15;62.55;;;22.85;;
71484;SDS011;59300;52.074;4.758;2022-12-18T06:04:18;61.60;;;21.27;;
71484;SDS011;59300;52.074;4.758;2022-12-18T06:07:19;60.10;;;22.58;;
71484;SDS011;59300;52.074;4.758;2022-12-18T06:10:21;60.05;;;22.75;;
71484;SDS011;59300;52.074;4.758;2022-12-18T06:13:22;62.65;;;22.70;;
71484;SDS011;59300;52.074;4.758;2022-12-18T06:16:24;68.47;;;22.60;;
71484;SDS011;59300;52.074;4.758;2022-12-18T06:19:26;55.67;;;21.60;;
71484;SDS011;59300;52.074;4.758;2022-12-18T06:22:27;51.65;;;20.98;;
71484;SDS011;59300;52.074;4.758;2022-12-18T06:25:29;47.47;;;19.02;;
71484;SDS011;59300;52.074;4.758;2022-12-18T06:28:30;60.30;;;22.02;;
71484;SDS011;59300;52.074;4.758;2022-12-18T06:31:32;64.55;;;21.63;;
71484;SDS011;59300;52.074;4.758;2022-12-18T06:34:34;71.53;;;26.33;;
71484;SDS011;59300;52.074;4.758;2022-12-18T06:37:37;62.30;;;25.02;;
71484;SDS011;59300;52.074;4.758;2022-12-18T06:40:39;52.50;;;20.42;;
71484;SDS011;59300;52.074;4.758;2022-12-18T06:43:41;54.75;;;23.23;;
71484;SDS011;59300;52.074;4.758;2022-12-18T06:46:43;52.20;;;24.45;;
71484;SDS011;59300;52.074;4.758;2022-12-18T06:49:44;80.85;;;24.88;;
71484;SDS011;59300;52.074;4.758;2022-12-18T06:52:46;64.40;;;26.63;;
71484;SDS011;59300;52.074;4.758;2022-12-18T06:55:48;58.05;;;24.02;;
71484;SDS011;59300;52.074;4.758;2022-12-18T06:58:49;53.15;;;26.92;;
71484;SDS011;59300;52.074;4.758;2022-12-18T07:01:51;55.65;;;25.95;;
71484;SDS011;59300;52.074;4.758;2022-12-18T07:04:53;74.93;;;31.27;;
71484;SDS011;59300;52.074;4.758;2022-12-18T07:07:54;60.67;;;27.67;;
71484;SDS011;59300;52.074;4.758;2022-12-18T07:10:56;61.25;;;27.55;;
71484;SDS011;59300;52.074;4.758;2022-12-18T07:13:57;69.35;;;31.23;;
71484;SDS011;59300;52.074;4.758;2022-12-18T07:16:59;56.15;;;27.10;;
71484;SDS011;59300;52.074;4.758;2022-12-18T07:20:01;56.67;;;25.73;;
71484;SDS011;59300;52.074;4.758;2022-12-18T07:23:03;49.50;;;24.77;;
71484;SDS011;59300;52.074;4.758;2022-12-18T07:26:06;56.87;;;24.30;;
71484;SDS011;59300;52.074;4.758;2022-12-18T07:29:10;56.75;;;25.30;;
71484;SDS011;59300;52.074;4.758;2022-12-18T07:32:11;69.57;;;27.75;;
71484;SDS011;59300;52.074;4.758;2022-12-18T07:35:14;58.83;;;26.52;;
71484;SDS011;59300;52.074;4.758;2022-12-18T07:38:21;75.10;;;31.50;;
71484;SDS011;59300;52.074;4.758;2022-12-18T07:41:22;45.78;;;25.25;;
71484;SDS011;59300;52.074;4.758;2022-12-18T07:44:24;55.47;;;24.88;;
71484;SDS011;59300;52.074;4.758;2022-12-18T07:47:25;51.28;;;26.05;;
71484;SDS011;59300;52.074;4.758;2022-12-18T07:50:28;57.90;;;25.10;;
71484;SDS011;59300;52.074;4.758;2022-12-18T07:53:29;40.15;;;22.23;;
71484;SDS011;59300;52.074;4.758;2022-12-18T07:56:32;47.57;;;24.27;;
71484;SDS011;59300;52.074;4.758;2022-12-18T07:59:34;52.13;;;24.13;;
71484;SDS011;59300;52.074;4.758;2022-12-18T08:02:36;47.53;;;22.95;;
71484;SDS011;59300;52.074;4.758;2022-12-18T08:05:37;55.22;;;25.50;;
71484;SDS011;59300;52.074;4.758;2022-12-18T08:08:39;49.58;;;23.98;;
71484;SDS011;59300;52.074;4.758;2022-12-18T08:11:40;42.47;;;22.25;;
71484;SDS011;59300;52.074;4.758;2022-12-18T08:14:42;43.90;;;22.13;;
71484;SDS011;59300;52.074;4.758;2022-12-18T08:17:43;45.47;;;22.27;;
71484;SDS011;59300;52.074;4.758;2022-12-18T08:20:45;58.60;;;27.85;;
71484;SDS011;59300;52.074;4.758;2022-12-18T08:23:46;46.90;;;23.42;;
71484;SDS011;59300;52.074;4.758;2022-12-18T08:26:49;47.15;;;22.45;;
71484;SDS011;59300;52.074;4.758;2022-12-18T08:30:11;44.50;;;24.58;;
71484;SDS011;59300;52.074;4.758;2022-12-18T08:33:12;39.13;;;22.38;;
71484;SDS011;59300;52.074;4.758;2022-12-18T08:36:14;52.47;;;22.63;;
71484;SDS011;59300;52.074;4.758;2022-12-18T08:39:15;43.85;;;22.45;;
71484;SDS011;59300;52.074;4.758;2022-12-18T08:42:17;55.20;;;25.65;;
71484;SDS011;59300;52.074;4.758;2022-12-18T08:45:18;48.50;;;22.30;;
71484;SDS011;59300;52.074;4.758;2022-12-18T08:48:20;47.65;;;23.25;;
71484;SDS011;59300;52.074;4.758;2022-12-18T08:51:22;48.90;;;22.92;;
71484;SDS011;59300;52.074;4.758;2022-12-18T08:54:24;47.92;;;22.77;;
71484;SDS011;59300;52.074;4.758;2022-12-18T08:57:27;53.83;;;22.50;;
71484;SDS011;59300;52.074;4.758;2022-12-18T09:00:28;40.53;;;21.75;;
71484;SDS011;59300;52.074;4.758;2022-12-18T09:03:33;35.30;;;19.30;;
71484;SDS011;59300;52.074;4.758;2022-12-18T09:06:34;45.97;;;21.63;;
71484;SDS011;59300;52.074;4.758;2022-12-18T09:09:37;39.15;;;20.38;;
71484;SDS011;59300;52.074;4.758;2022-12-18T09:12:38;35.58;;;19.17;;
71484;SDS011;59300;52.074;4.758;2022-12-18T09:15:47;47.58;;;21.42;;
71484;SDS011;59300;52.074;4.758;2022-12-18T09:18:51;36.28;;;19.90;;
71484;SDS011;59300;52.074;4.758;2022-12-18T09:21:52;39.22;;;19.80;;
71484;SDS011;59300;52.074;4.758;2022-12-18T09:24:54;44.80;;;21.77;;
71484;SDS011;59300;52.074;4.758;2022-12-18T09:27:55;37.03;;;20.02;;
71484;SDS011;59300;52.074;4.758;2022-12-18T09:30:57;40.00;;;17.80;;
71484;SDS011;59300;52.074;4.758;2022-12-18T09:33:58;38.22;;;19.23;;
71484;SDS011;59300;52.074;4.758;2022-12-18T09:37:00;37.90;;;18.00;;
71484;SDS011;59300;52.074;4.758;2022-12-18T09:40:02;36.83;;;17.60;;
71484;SDS011;59300;52.074;4.758;2022-12-18T09:43:04;30.02;;;16.00;;
71484;SDS011;59300;52.074;4.758;2022-12-18T09:46:10;35.90;;;19.42;;
71484;SDS011;59300;52.074;4.758;2022-12-18T09:49:19;37.67;;;18.02;;
71484;SDS011;59300;52.074;4.758;2022-12-18T09:52:27;38.25;;;20.05;;
71484;SDS011;59300;52.074;4.758;2022-12-18T09:55:43;28.67;;;15.52;;
71484;SDS011;59300;52.074;4.758;2022-12-18T09:58:50;33.53;;;18.58;;
71484;SDS011;59300;52.074;4.758;2022-12-18T10:08:51;34.15;;;18.90;;
71484;SDS011;59300;52.074;4.758;2022-12-18T10:15:34;35.00;;;16.65;;
71484;SDS011;59300;52.074;4.758;2022-12-18T10:22:23;34.70;;;17.17;;
71484;SDS011;59300;52.074;4.758;2022-12-18T10:25:34;29.60;;;15.93;;
71484;SDS011;59300;52.074;4.758;2022-12-18T10:28:46;36.00;;;17.17;;
71484;SDS011;59300;52.074;4.758;2022-12-18T10:31:47;33.58;;;16.45;;
71484;SDS011;59300;52.074;4.758;2022-12-18T10:34:50;30.52;;;16.15;;
71484;SDS011;59300;52.074;4.758;2022-12-18T10:44:22;32.72;;;17.63;;
71484;SDS011;59300;52.074;4.758;2022-12-18T10:47:27;33.47;;;16.05;;
71484;SDS011;59300;52.074;4.758;2022-12-18T10:50:33;32.83;;;17.38;;
71484;SDS011;59300;52.074;4.758;2022-12-18T10:53:59;24.10;;;15.10;;
71484;SDS011;59300;52.074;4.758;2022-12-18T11:00:30;25.58;;;15.45;;
71484;SDS011;59300;52.074;4.758;2022-12-18T11:03:36;26.73;;;15.30;;
71484;SDS011;59300;52.074;4.758;2022-12-18T11:06:52;30.33;;;16.25;;
71484;SDS011;59300;52.074;4.758;2022-12-18T11:10:00;28.08;;;14.57;;
71484;SDS011;59300;52.074;4.758;2022-12-18T11:13:11;30.98;;;16.02;;
71484;SDS011;59300;52.074;4.758;2022-12-18T11:16:20;32.50;;;15.30;;
71484;SDS011;59300;52.074;4.758;2022-12-18T11:22:41;27.88;;;15.35;;
71484;SDS011;59300;52.074;4.758;2022-12-18T11:25:50;27.73;;;15.60;;
71484;SDS011;59300;52.074;4.758;2022-12-18T11:29:10;30.70;;;16.23;;
71484;SDS011;59300;52.074;4.758;2022-12-18T11:35:49;30.65;;;16.25;;
71484;SDS011;59300;52.074;4.758;2022-12-18T11:38:53;27.65;;;16.13;;
71484;SDS011;59300;52.074;4.758;2022-12-18T11:42:04;27.70;;;15.07;;
71484;SDS011;59300;52.074;4.758;2022-12-18T11:48:23;30.63;;;15.65;;
71484;SDS011;59300;52.074;4.758;2022-12-18T11:51:33;25.95;;;15.38;;
71484;SDS011;59300;52.074;4.758;2022-12-18T11:54:39;24.52;;;13.77;;
71484;SDS011;59300;52.074;4.758;2022-12-18T11:57:44;27.65;;;15.50;;
71484;SDS011;59300;52.074;4.758;2022-12-18T12:07:50;24.02;;;13.73;;
71484;SDS011;59300;52.074;4.758;2022-12-18T12:28:15;28.65;;;13.82;;
71484;SDS011;59300;52.074;4.758;2022-12-18T12:35:31;26.25;;;13.73;;
71484;SDS011;59300;52.074;4.758;2022-12-18T12:38:57;26.25;;;14.18;;
71484;SDS011;59300;52.074;4.758;2022-12-18T12:42:05;28.60;;;14.27;;
71484;SDS011;59300;52.074;4.758;2022-12-18T12:45:18;29.73;;;14.55;;
71484;SDS011;59300;52.074;4.758;2022-12-18T12:51:49;30.17;;;15.45;;
71484;SDS011;59300;52.074;4.758;2022-12-18T12:55:02;26.60;;;14.50;;
71484;SDS011;59300;52.074;4.758;2022-12-18T12:58:16;25.47;;;13.70;;
71484;SDS011;59300;52.074;4.758;2022-12-18T13:04:47;28.33;;;14.65;;
71484;SDS011;59300;52.074;4.758;2022-12-18T13:07:59;26.10;;;14.05;;
71484;SDS011;59300;52.074;4.758;2022-12-18T13:11:12;26.85;;;15.07;;
71484;SDS011;59300;52.074;4.758;2022-12-18T13:14:45;26.17;;;13.60;;
71484;SDS011;59300;52.074;4.758;2022-12-18T13:21:16;26.10;;;14.98;;
71484;SDS011;59300;52.074;4.758;2022-12-18T13:24:26;26.42;;;14.68;;
71484;SDS011;59300;52.074;4.758;2022-12-18T13:30:47;29.35;;;15.27;;
71484;SDS011;59300;52.074;4.758;2022-12-18T13:43:42;31.42;;;15.20;;
71484;SDS011;59300;52.074;4.758;2022-12-18T13:46:47;30.65;;;15.18;;
71484;SDS011;59300;52.074;4.758;2022-12-18T13:49:51;28.55;;;14.23;;
71484;SDS011;59300;52.074;4.758;2022-12-18T13:52:53;28.52;;;15.38;;
71484;SDS011;59300;52.074;4.758;2022-12-18T13:55:55;27.98;;;14.63;;
71484;SDS011;59300;52.074;4.758;2022-12-18T13:59:08;32.10;;;16.02;;
71484;SDS011;59300;52.074;4.758;2022-12-18T14:02:16;28.67;;;16.38;;
71484;SDS011;59300;52.074;4.758;2022-12-18T14:05:26;31.40;;;15.23;;
71484;SDS011;59300;52.074;4.758;2022-12-18T14:08:38;32.17;;;15.27;;
71484;SDS011;59300;52.074;4.758;2022-12-18T14:11:46;30.20;;;16.55;;
71484;SDS011;59300;52.074;4.758;2022-12-18T14:14:49;25.88;;;14.77;;
71484;SDS011;59300;52.074;4.758;2022-12-18T14:17:57;31.30;;;15.95;;
71484;SDS011;59300;52.074;4.758;2022-12-18T14:21:01;29.13;;;15.75;;
71484;SDS011;59300;52.074;4.758;2022-12-18T14:27:18;28.00;;;15.27;;
71484;SDS011;59300;52.074;4.758;2022-12-18T14:30:30;31.63;;;17.00;;
71484;SDS011;59300;52.074;4.758;2022-12-18T14:33:35;29.63;;;15.50;;
71484;SDS011;59300;52.074;4.758;2022-12-18T14:36:39;32.95;;;15.15;;
71484;SDS011;59300;52.074;4.758;2022-12-18T14:39:51;28.48;;;15.55;;
71484;SDS011;59300;52.074;4.758;2022-12-18T14:43:04;30.85;;;15.63;;
71484;SDS011;59300;52.074;4.758;2022-12-18T14:46:25;30.15;;;16.92;;
71484;SDS011;59300;52.074;4.758;2022-12-18T14:49:31;33.25;;;16.73;;
71484;SDS011;59300;52.074;4.758;2022-12-18T14:52:34;35.47;;;18.42;;
71484;SDS011;59300;52.074;4.758;2022-12-18T14:55:36;40.63;;;21.27;;
71484;SDS011;59300;52.074;4.758;2022-12-18T14:58:37;29.63;;;15.57;;
71484;SDS011;59300;52.074;4.758;2022-12-18T15:01:44;32.88;;;16.95;;
71484;SDS011;59300;52.074;4.758;2022-12-18T15:04:59;33.63;;;16.90;;
71484;SDS011;59300;52.074;4.758;2022-12-18T15:08:28;32.03;;;18.17;;
71484;SDS011;59300;52.074;4.758;2022-12-18T15:11:55;29.75;;;15.43;;
71484;SDS011;59300;52.074;4.758;2022-12-18T15:14:59;31.80;;;16.40;;
71484;SDS011;59300;52.074;4.758;2022-12-18T15:18:00;27.98;;;16.20;;
71484;SDS011;59300;52.074;4.758;2022-12-18T15:21:14;28.85;;;14.95;;
71484;SDS011;59300;52.074;4.758;2022-12-18T15:24:24;29.70;;;16.45;;
71484;SDS011;59300;52.074;4.758;2022-12-18T15:27:34;29.45;;;16.92;;
71484;SDS011;59300;52.074;4.758;2022-12-18T15:30:37;31.40;;;16.48;;
71484;SDS011;59300;52.074;4.758;2022-12-18T15:33:46;31.60;;;16.75;;
71484;SDS011;59300;52.074;4.758;2022-12-18T15:37:02;50.72;;;24.58;;
71484;SDS011;59300;52.074;4.758;2022-12-18T15:40:04;30.13;;;17.55;;
71484;SDS011;59300;52.074;4.758;2022-12-18T15:43:07;32.53;;;16.05;;
71484;SDS011;59300;52.074;4.758;2022-12-18T15:46:14;31.33;;;16.52;;
71484;SDS011;59300;52.074;4.758;2022-12-18T15:49:17;29.38;;;15.90;;
71484;SDS011;59300;52.074;4.758;2022-12-18T15:52:18;28.48;;;15.10;;
71484;SDS011;59300;52.074;4.758;2022-12-18T15:55:20;27.45;;;15.52;;
71484;SDS011;59300;52.074;4.758;2022-12-18T15:58:23;33.75;;;15.18;;
71484;SDS011;59300;52.074;4.758;2022-12-18T16:01:26;31.08;;;15.50;;
71484;SDS011;59300;52.074;4.758;2022-12-18T16:04:29;31.05;;;15.85;;
71484;SDS011;59300;52.074;4.758;2022-12-18T16:07:31;26.38;;;15.32;;
71484;SDS011;59300;52.074;4.758;2022-12-18T16:10:32;31.25;;;16.92;;
71484;SDS011;59300;52.074;4.758;2022-12-18T16:13:34;32.45;;;16.55;;
71484;SDS011;59300;52.074;4.758;2022-12-18T16:16:35;31.45;;;17.48;;
71484;SDS011;59300;52.074;4.758;2022-12-18T16:19:37;31.73;;;15.40;;
71484;SDS011;59300;52.074;4.758;2022-12-18T16:22:38;27.67;;;15.82;;
71484;SDS011;59300;52.074;4.758;2022-12-18T16:25:40;29.65;;;16.13;;
71484;SDS011;59300;52.074;4.758;2022-12-18T16:28:42;34.38;;;18.45;;
71484;SDS011;59300;52.074;4.758;2022-12-18T16:31:48;30.77;;;15.98;;
71484;SDS011;59300;52.074;4.758;2022-12-18T16:34:50;32.65;;;17.02;;
71484;SDS011;59300;52.074;4.758;2022-12-18T16:37:52;33.90;;;18.60;;
71484;SDS011;59300;52.074;4.758;2022-12-18T16:40:53;35.00;;;16.73;;
71484;SDS011;59300;52.074;4.758;2022-12-18T16:43:55;32.47;;;17.35;;
71484;SDS011;59300;52.074;4.758;2022-12-18T16:46:56;32.97;;;16.23;;
71484;SDS011;59300;52.074;4.758;2022-12-18T16:49:58;29.80;;;15.02;;
71484;SDS011;59300;52.074;4.758;2022-12-18T16:52:59;30.52;;;14.98;;
71484;SDS011;59300;52.074;4.758;2022-12-18T16:56:01;32.60;;;17.33;;
71484;SDS011;59300;52.074;4.758;2022-12-18T16:59:02;37.55;;;16.83;;
71484;SDS011;59300;52.074;4.758;2022-12-18T17:02:04;31.42;;;16.25;;
71484;SDS011;59300;52.074;4.758;2022-12-18T17:05:08;30.95;;;16.55;;
71484;SDS011;59300;52.074;4.758;2022-12-18T17:08:12;33.55;;;16.55;;
71484;SDS011;59300;52.074;4.758;2022-12-18T17:11:14;29.90;;;15.07;;
71484;SDS011;59300;52.074;4.758;2022-12-18T17:14:16;31.27;;;16.73;;
71484;SDS011;59300;52.074;4.758;2022-12-18T17:17:20;30.05;;;15.65;;
71484;SDS011;59300;52.074;4.758;2022-12-18T17:20:23;34.53;;;15.93;;
71484;SDS011;59300;52.074;4.758;2022-12-18T17:23:26;29.95;;;16.42;;
71484;SDS011;59300;52.074;4.758;2022-12-18T17:26:28;28.15;;;15.13;;
71484;SDS011;59300;52.074;4.758;2022-12-18T17:29:30;29.20;;;15.90;;
71484;SDS011;59300;52.074;4.758;2022-12-18T17:32:32;27.65;;;14.50;;
71484;SDS011;59300;52.074;4.758;2022-12-18T17:35:33;30.65;;;15.27;;
71484;SDS011;59300;52.074;4.758;2022-12-18T17:38:35;27.90;;;15.35;;
71484;SDS011;59300;52.074;4.758;2022-12-18T17:41:37;26.50;;;15.95;;
71484;SDS011;59300;52.074;4.758;2022-12-18T17:44:38;28.45;;;14.95;;
71484;SDS011;59300;52.074;4.758;2022-12-18T17:47:40;33.85;;;17.23;;
71484;SDS011;59300;52.074;4.758;2022-12-18T17:50:41;30.00;;;15.02;;
71484;SDS011;59300;52.074;4.758;2022-12-18T17:53:43;29.58;;;14.82;;
71484;SDS011;59300;52.074;4.758;2022-12-18T17:56:45;28.38;;;14.48;;
71484;SDS011;59300;52.074;4.758;2022-12-18T17:59:46;26.90;;;14.48;;
71484;SDS011;59300;52.074;4.758;2022-12-18T18:02:48;24.08;;;13.88;;
71484;SDS011;59300;52.074;4.758;2022-12-18T18:05:56;34.20;;;16.95;;
71484;SDS011;59300;52.074;4.758;2022-12-18T18:08:59;28.15;;;14.27;;
71484;SDS011;59300;52.074;4.758;2022-12-18T18:12:00;27.23;;;14.95;;
71484;SDS011;59300;52.074;4.758;2022-12-18T18:15:02;29.60;;;16.35;;
71484;SDS011;59300;52.074;4.758;2022-12-18T18:18:04;30.13;;;15.77;;
71484;SDS011;59300;52.074;4.758;2022-12-18T18:21:06;30.90;;;15.30;;
71484;SDS011;59300;52.074;4.758;2022-12-18T18:24:09;30.73;;;14.52;;
71484;SDS011;59300;52.074;4.758;2022-12-18T18:27:12;30.73;;;15.07;;
71484;SDS011;59300;52.074;4.758;2022-12-18T18:30:13;25.58;;;14.38;;
71484;SDS011;59300;52.074;4.758;2022-12-18T18:33:15;26.92;;;14.02;;
71484;SDS011;59300;52.074;4.758;2022-12-18T18:36:16;29.95;;;15.82;;
71484;SDS011;59300;52.074;4.758;2022-12-18T18:39:18;29.98;;;14.88;;
71484;SDS011;59300;52.074;4.758;2022-12-18T18:42:20;27.42;;;14.98;;
71484;SDS011;59300;52.074;4.758;2022-12-18T18:45:21;30.20;;;15.02;;
71484;SDS011;59300;52.074;4.758;2022-12-18T18:48:23;31.88;;;16.73;;
71484;SDS011;59300;52.074;4.758;2022-12-18T18:51:29;29.92;;;15.18;;
71484;SDS011;59300;52.074;4.758;2022-12-18T18:54:35;30.77;;;15.60;;
71484;SDS011;59300;52.074;4.758;2022-12-18T18:57:37;29.75;;;16.42;;
71484;SDS011;59300;52.074;4.758;2022-12-18T19:00:38;32.58;;;16.98;;
71484;SDS011;59300;52.074;4.758;2022-12-18T19:03:40;32.10;;;17.27;;
71484;SDS011;59300;52.074;4.758;2022-12-18T19:06:43;38.28;;;18.17;;
71484;SDS011;59300;52.074;4.758;2022-12-18T19:09:46;32.55;;;17.38;;
71484;SDS011;59300;52.074;4.758;2022-12-18T19:12:47;37.80;;;18.17;;
71484;SDS011;59300;52.074;4.758;2022-12-18T19:15:53;34.65;;;18.33;;
71484;SDS011;59300;52.074;4.758;2022-12-18T19:18:56;36.75;;;17.95;;
71484;SDS011;59300;52.074;4.758;2022-12-18T19:22:03;34.15;;;17.63;;
71484;SDS011;59300;52.074;4.758;2022-12-18T19:25:05;36.75;;;19.00;;
71484;SDS011;59300;52.074;4.758;2022-12-18T19:28:07;32.83;;;17.10;;
71484;SDS011;59300;52.074;4.758;2022-12-18T19:31:22;34.35;;;19.15;;
71484;SDS011;59300;52.074;4.758;2022-12-18T19:34:30;37.47;;;17.20;;
71484;SDS011;59300;52.074;4.758;2022-12-18T19:37:33;33.03;;;16.65;;
71484;SDS011;59300;52.074;4.758;2022-12-18T19:40:39;36.35;;;18.95;;
71484;SDS011;59300;52.074;4.758;2022-12-18T19:43:41;39.65;;;20.33;;
71484;SDS011;59300;52.074;4.758;2022-12-18T19:46:43;39.75;;;19.23;;
71484;SDS011;59300;52.074;4.758;2022-12-18T19:49:45;42.28;;;19.60;;
71484;SDS011;59300;52.074;4.758;2022-12-18T19:52:47;39.38;;;20.58;;